CPA169 VHHH-YSSY
Flight info
| Callsign | CPA169 |
|---|---|
| Flight time | N/A |
| Altitude | 38000 |
| Route | DALOL V652 SABNO/N0495F370 A583 MARAN/N0489F390 A583 ZAM A461 BUTPA DCT VEGPU DCT RUKSI/N0486F410 DCT YUSEF DCT NOLES DCT 26S138E DCT OOM DCT APOMA Y52 VELGI Y105 TARAL Y59 TESAT |
| Aircraft | A359/H-SDE2E3GHIJ3J4J5LM1ORWXY/LB1D1 |
Departure
| Time | 2026-05-06 04:45 |
|---|---|
| Airport | Hong Kong International Airport (VHHH) |
Arrival
| Time | N/A |
|---|---|
| Airport | Sydney Kingsford Smith International Airport (YSSY) |
| Time | Latitude | Longitude | Altitude | Speed | Heading |
|---|---|---|---|---|---|
| 2026-05-06 04:27 | 22.30954 | 113.90541 | 43 ft | 0 kts | 71° |
| 2026-05-06 04:35 | 22.30950 | 113.90530 | 43 ft | 3 kts | 71° |
| 2026-05-06 04:36 | 22.30944 | 113.90510 | 40 ft | 3 kts | 71° |
| 2026-05-06 04:36 | 22.30937 | 113.90489 | 40 ft | 3 kts | 71° |
| 2026-05-06 04:36 | 22.30932 | 113.90474 | 40 ft | 3 kts | 81° |
| 2026-05-06 04:36 | 22.30931 | 113.90459 | 40 ft | 3 kts | 111° |
| 2026-05-06 04:37 | 22.30938 | 113.90444 | 37 ft | 3 kts | 137° |
| 2026-05-06 04:37 | 22.30949 | 113.90433 | 39 ft | 3 kts | 149° |
| 2026-05-06 04:37 | 22.30963 | 113.90425 | 39 ft | 3 kts | 158° |
| 2026-05-06 04:37 | 22.30975 | 113.90420 | 41 ft | 1 kts | 161° |
| 2026-05-06 04:38 | 22.30978 | 113.90419 | 41 ft | 0 kts | 161° |
| 2026-05-06 04:39 | 22.30962 | 113.90425 | 43 ft | 0 kts | 159° |
| 2026-05-06 04:41 | 22.30961 | 113.90426 | 43 ft | 0 kts | 159° |
| 2026-05-06 04:41 | 22.30924 | 113.90439 | 43 ft | 14 kts | 161° |
| 2026-05-06 04:41 | 22.30765 | 113.90499 | 43 ft | 28 kts | 160° |
| 2026-05-06 04:41 | 22.30598 | 113.90562 | 43 ft | 25 kts | 161° |
| 2026-05-06 04:42 | 22.30435 | 113.90623 | 43 ft | 25 kts | 160° |
| 2026-05-06 04:42 | 22.30272 | 113.90684 | 43 ft | 25 kts | 161° |
| 2026-05-06 04:42 | 22.30176 | 113.90647 | 41 ft | 15 kts | 244° |
| 2026-05-06 04:42 | 22.30126 | 113.90496 | 43 ft | 30 kts | 251° |
| 2026-05-06 04:43 | 22.30050 | 113.90261 | 43 ft | 29 kts | 250° |
| 2026-05-06 04:43 | 22.29986 | 113.90061 | 43 ft | 28 kts | 250° |
| 2026-05-06 04:43 | 22.29919 | 113.89856 | 43 ft | 31 kts | 251° |
| 2026-05-06 04:43 | 22.29844 | 113.89730 | 43 ft | 14 kts | 188° |
| 2026-05-06 04:44 | 22.29749 | 113.89764 | 43 ft | 15 kts | 160° |
| 2026-05-06 04:44 | 22.29640 | 113.89836 | 43 ft | 16 kts | 111° |
| 2026-05-06 04:44 | 22.29673 | 113.89956 | 43 ft | 23 kts | 70° |
| 2026-05-06 04:44 | 22.29786 | 113.90310 | 40 ft | 80 kts | 71° |
| 2026-05-06 04:45 | 22.30027 | 113.91057 | 44 ft | 132 kts | 70° |
| 2026-05-06 04:45 | 22.30382 | 113.92147 | 91 ft | 172 kts | 71° |
| 2026-05-06 04:45 | 22.30761 | 113.93293 | 895 ft | 157 kts | 71° |
| 2026-05-06 04:45 | 22.31137 | 113.94465 | 1244 ft | 175 kts | 72° |
| 2026-05-06 04:46 | 22.31555 | 113.95788 | 1516 ft | 198 kts | 72° |
| 2026-05-06 04:46 | 22.32018 | 113.97243 | 2080 ft | 208 kts | 72° |
| 2026-05-06 04:46 | 22.32499 | 113.98736 | 2694 ft | 214 kts | 72° |
| 2026-05-06 04:46 | 22.32993 | 114.00278 | 3201 ft | 221 kts | 72° |
| 2026-05-06 04:47 | 22.33497 | 114.01866 | 3738 ft | 226 kts | 73° |
| 2026-05-06 04:47 | 22.33807 | 114.03549 | 4266 ft | 231 kts | 90° |
| 2026-05-06 04:47 | 22.33594 | 114.05256 | 4866 ft | 231 kts | 111° |
| 2026-05-06 04:47 | 22.32825 | 114.06764 | 5454 ft | 229 kts | 132° |
| 2026-05-06 04:48 | 22.31629 | 114.07898 | 5969 ft | 234 kts | 150° |
| 2026-05-06 04:48 | 22.30104 | 114.08611 | 6347 ft | 244 kts | 169° |
| 2026-05-06 04:48 | 22.28408 | 114.08806 | 6911 ft | 247 kts | 182° |
| 2026-05-06 04:48 | 22.26634 | 114.08777 | 7269 ft | 264 kts | 184° |
| 2026-05-06 04:49 | 22.24761 | 114.08728 | 7781 ft | 273 kts | 184° |
| 2026-05-06 04:49 | 22.22850 | 114.08692 | 8463 ft | 277 kts | 184° |
| 2026-05-06 04:49 | 22.20912 | 114.08664 | 9170 ft | 280 kts | 184° |
| 2026-05-06 04:49 | 22.18947 | 114.08659 | 9864 ft | 285 kts | 181° |
| 2026-05-06 04:50 | 22.16953 | 114.09047 | 10322 ft | 301 kts | 166° |
| 2026-05-06 04:50 | 22.14954 | 114.09939 | 10565 ft | 324 kts | 153° |
| 2026-05-06 04:50 | 22.13195 | 114.11576 | 10796 ft | 348 kts | 130° |
| 2026-05-06 04:50 | 22.11833 | 114.13820 | 11065 ft | 366 kts | 123° |
| 2026-05-06 04:51 | 22.10536 | 114.16247 | 11339 ft | 381 kts | 122° |
| 2026-05-06 04:51 | 22.09209 | 114.18768 | 11655 ft | 392 kts | 122° |
| 2026-05-06 04:51 | 22.07856 | 114.21343 | 12145 ft | 395 kts | 122° |
| 2026-05-06 04:51 | 22.06503 | 114.23918 | 12773 ft | 396 kts | 122° |
| 2026-05-06 04:52 | 22.05139 | 114.26509 | 13357 ft | 398 kts | 122° |
| 2026-05-06 04:52 | 22.03771 | 114.29103 | 13921 ft | 400 kts | 122° |
| 2026-05-06 04:52 | 22.02391 | 114.31721 | 14442 ft | 401 kts | 122° |
| 2026-05-06 04:52 | 22.01009 | 114.34339 | 14977 ft | 402 kts | 122° |
| 2026-05-06 04:53 | 21.99626 | 114.36960 | 15519 ft | 403 kts | 122° |
| 2026-05-06 04:53 | 21.98238 | 114.39588 | 16066 ft | 403 kts | 122° |
| 2026-05-06 04:53 | 21.96850 | 114.42214 | 16627 ft | 404 kts | 123° |
| 2026-05-06 04:53 | 21.95457 | 114.44847 | 17204 ft | 404 kts | 123° |
| 2026-05-06 04:54 | 21.94067 | 114.47476 | 17781 ft | 405 kts | 123° |
| 2026-05-06 04:54 | 21.92662 | 114.50127 | 18195 ft | 411 kts | 123° |
| 2026-05-06 04:54 | 21.91229 | 114.52829 | 18378 ft | 421 kts | 123° |
| 2026-05-06 04:54 | 21.89758 | 114.55601 | 18541 ft | 431 kts | 123° |
| 2026-05-06 04:55 | 21.88254 | 114.58436 | 18679 ft | 441 kts | 123° |
| 2026-05-06 04:55 | 21.86721 | 114.61325 | 18883 ft | 448 kts | 123° |
| 2026-05-06 04:55 | 21.85170 | 114.64250 | 19167 ft | 451 kts | 123° |
| 2026-05-06 04:55 | 21.83607 | 114.67194 | 19479 ft | 455 kts | 123° |
| 2026-05-06 04:56 | 21.82034 | 114.70156 | 19792 ft | 458 kts | 123° |
| 2026-05-06 04:56 | 21.80468 | 114.73101 | 20098 ft | 461 kts | 122° |
| 2026-05-06 04:56 | 21.78871 | 114.76104 | 20410 ft | 464 kts | 122° |
| 2026-05-06 04:56 | 21.77262 | 114.79127 | 20721 ft | 467 kts | 122° |
| 2026-05-06 04:57 | 21.75641 | 114.82172 | 21016 ft | 470 kts | 122° |
| 2026-05-06 04:57 | 21.73931 | 114.85179 | 21328 ft | 472 kts | 127° |
| 2026-05-06 04:57 | 21.72045 | 114.88075 | 21649 ft | 474 kts | 129° |
| 2026-05-06 04:57 | 21.70059 | 114.90912 | 21981 ft | 476 kts | 131° |
| 2026-05-06 04:58 | 21.68023 | 114.93732 | 22293 ft | 479 kts | 131° |
| 2026-05-06 04:58 | 21.65967 | 114.96558 | 22612 ft | 482 kts | 131° |
| 2026-05-06 04:58 | 21.63899 | 114.99412 | 22916 ft | 485 kts | 131° |
| 2026-05-06 04:58 | 21.61830 | 115.02295 | 23231 ft | 488 kts | 131° |
| 2026-05-06 04:59 | 21.59756 | 115.05199 | 23534 ft | 491 kts | 131° |
| 2026-05-06 04:59 | 21.57676 | 115.08119 | 23809 ft | 494 kts | 130° |
| 2026-05-06 04:59 | 21.55586 | 115.11055 | 24114 ft | 495 kts | 130° |
| 2026-05-06 04:59 | 21.53309 | 115.13819 | 24390 ft | 493 kts | 140° |
| 2026-05-06 05:00 | 21.50704 | 115.16182 | 24696 ft | 490 kts | 147° |
| 2026-05-06 05:00 | 21.47961 | 115.18365 | 25005 ft | 491 kts | 149° |
| 2026-05-06 05:00 | 21.45158 | 115.20463 | 25334 ft | 492 kts | 150° |
| 2026-05-06 05:00 | 21.42314 | 115.22528 | 25666 ft | 494 kts | 150° |
| 2026-05-06 05:01 | 21.39455 | 115.24583 | 26008 ft | 496 kts | 150° |
| 2026-05-06 05:01 | 21.36581 | 115.26651 | 26358 ft | 499 kts | 150° |
| 2026-05-06 05:01 | 21.33696 | 115.28736 | 26722 ft | 501 kts | 150° |
| 2026-05-06 05:01 | 21.30805 | 115.30836 | 27083 ft | 503 kts | 150° |
| 2026-05-06 05:02 | 21.27941 | 115.32924 | 27447 ft | 506 kts | 150° |